Time;durP1;ratioP1;P1;durP2;ratioP2;P2;SDS_P1;SDS_P2;PMS_P1;PMS_P2;Temp;Humidity;BMP_temperature;BMP_pressure;BME280_temperature;BME280_humidity;BME280_pressure;Samples;Min_cycle;Max_cycle;Signal;HPM_P1;HPM_P2
2022/01/22 00:00:10;;;;;;;14.90;8.80;;;3.90;99.90;;;;;;5029012;28;20531;-73
2022/01/22 00:02:35;;;;;;;24.50;8.90;;;3.90;99.90;;;;;;5015253;28;20174;-74
2022/01/22 00:05:02;;;;;;;15.93;7.80;;;4.30;99.90;;;;;;5029663;28;20650;-74
2022/01/22 00:07:28;;;;;;;24.10;9.87;;;3.40;99.90;;;;;;5029574;28;20182;-74
2022/01/22 00:09:59;;;;;;;22.43;8.67;;;3.90;99.90;;;;;;5029742;28;20494;-75
2022/01/22 00:15:13;;;;;;;19.40;7.77;;;4.30;99.90;;;;;;5018362;28;20847;-73
2022/01/22 00:17:40;;;;;;;18.50;8.73;;;3.80;99.90;;;;;;5036205;28;20413;-73
2022/01/22 00:20:07;;;;;;;18.50;8.10;;;3.80;99.90;;;;;;5046477;28;21151;-74
2022/01/22 00:22:35;;;;;;;18.00;7.70;;;3.80;99.90;;;;;;5046918;28;20760;-73
2022/01/22 00:25:02;;;;;;;11.43;7.37;;;3.80;99.90;;;;;;5028134;28;20404;-73
2022/01/22 00:27:29;;;;;;;14.07;8.00;;;3.70;99.90;;;;;;5028539;28;20409;-73
2022/01/22 00:29:54;;;;;;;19.87;7.90;;;3.70;99.90;;;;;;5029525;28;20421;-73
2022/01/22 00:32:20;;;;;;;15.77;8.40;;;3.70;99.90;;;;;;5029569;28;20424;-73
2022/01/22 00:34:46;;;;;;;19.17;8.30;;;4.20;99.90;;;;;;5029196;28;20178;-74
2022/01/22 00:37:12;;;;;;;14.97;7.77;;;3.80;99.90;;;;;;5029274;28;20178;-74
2022/01/22 00:39:38;;;;;;;16.40;7.90;;;;;;;;;;5029110;28;20252;-73
2022/01/22 00:42:10;;;;;;;13.47;7.93;;;3.70;99.90;;;;;;5027396;28;20756;-73
2022/01/22 00:44:36;;;;;;;12.40;7.10;;;3.70;99.90;;;;;;5020792;28;20421;-74
2022/01/22 00:47:02;;;;;;;13.93;6.77;;;4.10;99.90;;;;;;5028441;28;20431;-74
2022/01/22 00:49:29;;;;;;;25.03;8.40;;;3.70;99.90;;;;;;5038839;28;20284;-72
2022/01/22 00:51:55;;;;;;;16.33;8.27;;;3.80;99.90;;;;;;5026879;28;20479;-73
2022/01/22 00:54:21;;;;;;;22.90;7.77;;;4.10;99.90;;;;;;5024863;28;21002;-73
2022/01/22 00:56:46;;;;;;;16.20;8.20;;;3.80;99.90;;;;;;5027682;28;20429;-73
2022/01/22 00:59:12;;;;;;;20.57;9.27;;;3.80;99.90;;;;;;5028470;28;20201;-74
2022/01/22 01:01:37;;;;;;;17.23;7.93;;;3.70;99.90;;;;;;5028047;28;20225;-73
2022/01/22 01:04:03;;;;;;;16.40;8.17;;;3.70;99.90;;;;;;5028683;28;20186;-73
2022/01/22 01:06:30;;;;;;;13.07;8.27;;;3.70;99.90;;;;;;5026158;28;20546;-72
2022/01/22 01:08:59;;;;;;;15.40;8.10;;;3.70;99.90;;;;;;5028971;28;20374;-74
2022/01/22 01:11:27;;;;;;;15.70;8.30;;;3.70;99.90;;;;;;5026343;28;20459;-73
2022/01/22 01:13:58;;;;;;;14.77;8.00;;;4.10;99.90;;;;;;5028006;28;20744;-74
2022/01/22 01:35:29;;;;;;;15.10;8.00;;;4.10;99.90;;;;;;5025753;28;20893;-73
2022/01/22 01:37:57;;;;;;;19.37;8.43;;;3.80;99.90;;;;;;5025691;28;20533;-72
2022/01/22 01:40:24;;;;;;;14.13;8.17;;;3.80;99.90;;;;;;5025480;28;20444;-73
2022/01/22 01:43:04;;;;;;;19.07;8.50;;;3.70;99.90;;;;;;5027316;28;20429;-72
2022/01/22 01:45:30;;;;;;;18.27;8.87;;;3.80;99.90;;;;;;5026403;28;21053;-73
2022/01/22 01:48:04;;;;;;;17.93;8.83;;;3.80;99.90;;;;;;5030673;28;20622;-73
2022/01/22 01:50:35;;;;;;;16.40;8.40;;;3.80;99.90;;;;;;5040216;28;20844;-73
2022/01/22 01:53:11;;;;;;;15.70;8.00;;;3.90;99.90;;;;;;5027950;28;20425;-73
2022/01/22 01:55:50;;;;;;;16.83;9.33;;;3.90;99.90;;;;;;5019116;28;20427;-73
2022/01/22 01:58:17;;;;;;;20.30;9.17;;;4.20;99.90;;;;;;5026990;28;20728;-73
2022/01/22 02:00:44;;;;;;;16.13;8.40;;;3.90;99.90;;;;;;5027703;28;20451;-73
2022/01/22 02:03:12;;;;;;;17.73;9.00;;;3.90;99.90;;;;;;5027859;28;20439;-72
2022/01/22 02:05:38;;;;;;;18.40;9.50;;;3.90;99.90;;;;;;5027199;28;20436;-73
2022/01/22 02:08:05;;;;;;;18.63;8.27;;;4.30;99.90;;;;;;5027631;28;20448;-73
2022/01/22 02:10:34;;;;;;;18.43;9.37;;;3.90;99.90;;;;;;5027055;28;20463;-74
2022/01/22 02:23:58;;;;;;;13.67;8.70;;;4.30;99.90;;;;;;5028269;28;20470;-73
2022/01/22 02:26:23;;;;;;;20.63;9.57;;;4.00;99.90;;;;;;5026511;28;20420;-74
2022/01/22 02:28:51;;;;;;;15.80;9.77;;;4.00;99.90;;;;;;5028672;28;20590;-73
2022/01/22 02:31:29;;;;;;;22.07;9.30;;;4.00;99.90;;;;;;5047724;28;20193;-73
2022/01/22 02:34:07;;;;;;;17.90;9.23;;;4.00;99.90;;;;;;5047879;28;20448;-73
2022/01/22 02:36:54;;;;;;;21.53;9.50;;;4.00;99.90;;;;;;5034035;28;20812;-72
2022/01/22 02:39:24;;;;;;;15.90;8.90;;;4.00;99.90;;;;;;5027925;28;20412;-73
2022/01/22 02:41:52;;;;;;;22.80;9.80;;;4.00;99.90;;;;;;5027990;28;20507;-73
2022/01/22 02:44:43;;;;;;;19.37;10.33;;;4.10;99.90;;;;;;5031211;28;20451;-73
2022/01/22 02:47:08;;;;;;;27.90;10.60;;;4.40;99.90;;;;;;5035627;28;20431;-74
2022/01/22 02:49:34;;;;;;;19.90;10.03;;;4.50;99.90;;;;;;5039175;28;20460;-73
2022/01/22 02:52:07;;;;;;;16.43;9.00;;;4.10;99.90;;;;;;5031110;28;20197;-73
2022/01/22 02:54:33;;;;;;;14.83;9.03;;;4.00;99.90;;;;;;5031440;28;20202;-74
2022/01/22 02:56:59;;;;;;;20.17;10.13;;;4.00;99.90;;;;;;5029953;28;21068;-73
2022/01/22 02:59:24;;;;;;;17.40;9.37;;;3.90;99.90;;;;;;5030955;28;20192;-74
2022/01/22 03:01:51;;;;;;;25.33;9.80;;;4.00;99.90;;;;;;5028943;28;20293;-73
2022/01/22 03:04:17;;;;;;;16.37;9.70;;;3.90;99.90;;;;;;5031275;28;20543;-73
2022/01/22 03:06:43;;;;;;;17.63;9.37;;;4.20;99.90;;;;;;5030680;28;20428;-73
2022/01/22 03:09:11;;;;;;;18.90;8.90;;;4.00;99.90;;;;;;5030598;28;20502;-73
2022/01/22 03:11:47;;;;;;;18.43;10.50;;;4.00;99.90;;;;;;5029848;28;20493;-73
2022/01/22 03:20:36;;;;;;;18.23;9.90;;;4.10;99.90;;;;;;5026507;28;20475;-75
2022/01/22 03:22:52;;;;;;;19.73;10.57;;;4.00;99.90;;;;;;5023131;28;20531;-73
2022/01/22 03:27:59;;;;;;;17.20;10.50;;;4.00;99.90;;;;;;5029557;28;20541;-73
2022/01/22 03:30:24;;;;;;;20.90;10.97;;;4.00;99.90;;;;;;5030061;28;20456;-73
2022/01/22 03:32:53;;;;;;;21.13;12.23;;;4.40;99.90;;;;;;5029013;28;20181;-73
2022/01/22 03:37:51;;;;;;;18.20;10.63;;;4.00;99.90;;;;;;5030828;28;20464;-74
2022/01/22 03:40:21;;;;;;;22.43;11.10;;;4.10;99.90;;;;;;5030511;28;20564;-73
2022/01/22 03:42:48;;;;;;;18.27;11.50;;;4.10;99.90;;;;;;5032159;28;20424;-74
2022/01/22 03:45:14;;;;;;;24.90;11.37;;;4.10;99.90;;;;;;5029365;28;20433;-74
2022/01/22 03:47:40;;;;;;;19.57;10.40;;;4.60;99.90;;;;;;5027718;28;20559;-73
2022/01/22 03:50:08;;;;;;;24.53;11.60;;;4.20;99.90;;;;;;5030039;28;20264;-73
2022/01/22 03:52:34;;;;;;;19.73;11.83;;;3.90;99.90;;;;;;5028633;28;20408;-78
2022/01/22 03:55:00;;;;;;;20.07;11.30;;;4.50;99.90;;;;;;5029745;28;20508;-73
2022/01/22 03:57:25;;;;;;;21.07;11.27;;;4.50;99.90;;;;;;5029573;28;20181;-75
2022/01/22 03:59:53;;;;;;;28.67;11.53;;;4.20;99.90;;;;;;5029567;28;20177;-74
2022/01/22 04:02:53;;;;;;;22.20;11.87;;;4.20;99.90;;;;;;5030028;28;20181;-74
2022/01/22 04:05:05;;;;;;;19.77;11.57;;;4.70;99.90;;;;;;5029707;28;20578;-74
2022/01/22 04:10:09;;;;;;;19.20;10.60;;;4.30;99.90;;;;;;5030273;28;20551;-73
2022/01/22 04:15:18;;;;;;;18.63;10.97;;;4.20;99.90;;;;;;5030064;28;20400;-73
2022/01/22 04:26:11;;;;;;;21.57;11.57;;;4.50;99.90;;;;;;5029251;28;20398;-73
2022/01/22 04:28:37;;;;;;;23.30;11.80;;;4.30;99.90;;;;;;5029859;28;20455;-75
2022/01/22 04:31:02;;;;;;;23.90;12.30;;;4.30;99.90;;;;;;5029227;28;20502;-74
2022/01/22 04:33:28;;;;;;;21.17;11.67;;;3.40;99.90;;;;;;5027936;28;20195;-73
2022/01/22 04:35:53;;;;;;;25.30;13.30;;;4.30;99.90;;;;;;5047154;28;20253;-74
2022/01/22 04:38:19;;;;;;;19.13;11.20;;;4.30;99.90;;;;;;5044009;28;20210;-74
2022/01/22 04:40:45;;;;;;;27.30;13.03;;;4.40;99.90;;;;;;5028611;28;20220;-73
2022/01/22 04:43:11;;;;;;;20.20;11.77;;;4.40;99.90;;;;;;5029215;28;20218;-73
2022/01/22 04:48:24;;;;;;;24.50;12.07;;;4.80;99.90;;;;;;5037441;28;21009;-73
2022/01/22 04:56:34;;;;;;;25.37;12.67;;;4.90;99.90;;;;;;4990998;28;20509;-74
2022/01/22 04:59:02;;;;;;;22.10;11.50;;;4.50;99.90;;;;;;5011349;28;20779;-74
2022/01/22 05:01:28;;;;;;;18.87;11.47;;;4.60;99.90;;;;;;5028608;28;20276;-73
2022/01/22 05:03:53;;;;;;;26.17;11.70;;;4.60;99.90;;;;;;5028357;28;20432;-73
2022/01/22 05:06:19;;;;;;;21.57;11.10;;;4.60;99.90;;;;;;5027893;28;20486;-75
2022/01/22 05:08:44;;;;;;;21.80;11.43;;;4.50;99.90;;;;;;5028489;28;20206;-72
2022/01/22 05:11:10;;;;;;;24.77;12.13;;;4.60;99.90;;;;;;5027575;28;20221;-74
2022/01/22 05:13:36;;;;;;;29.83;14.53;;;4.60;99.90;;;;;;5028195;28;20174;-74
2022/01/22 05:16:01;;;;;;;18.07;11.70;;;4.60;99.90;;;;;;5028004;28;20200;-73
2022/01/22 05:18:27;;;;;;;21.20;10.83;;;4.60;99.90;;;;;;5039626;28;20651;-74
2022/01/22 05:21:04;;;;;;;22.43;11.27;;;4.70;99.90;;;;;;5028100;28;20828;-74
2022/01/22 05:23:30;;;;;;;21.10;11.50;;;4.70;99.90;;;;;;5028733;28;20544;-73
2022/01/22 05:26:00;;;;;;;22.30;11.27;;;4.60;99.90;;;;;;5028094;28;20750;-73
2022/01/22 05:31:38;;;;;;;23.50;10.93;;;4.60;99.90;;;;;;5028217;28;20498;-74
2022/01/22 05:39:10;;;;;;;21.80;10.50;;;4.70;99.90;;;;;;5020353;28;20474;-73
2022/01/22 05:41:38;;;;;;;23.77;11.90;;;4.70;99.90;;;;;;5026880;28;20483;-73
2022/01/22 05:44:04;;;;;;;23.37;11.97;;;4.80;99.90;;;;;;5027248;28;20959;-74
2022/01/22 05:46:29;;;;;;;23.43;10.70;;;4.70;99.90;;;;;;5025144;28;20529;-73
2022/01/22 05:48:55;;;;;;;26.10;10.83;;;4.70;99.90;;;;;;5036656;28;20217;-74
2022/01/22 05:51:20;;;;;;;17.63;11.00;;;4.80;99.90;;;;;;5027352;28;20213;-74
2022/01/22 06:01:58;;;;;;;27.43;12.40;;;4.80;99.90;;;;;;5026649;28;20510;-73
2022/01/22 06:04:23;;;;;;;33.30;15.30;;;5.10;99.90;;;;;;5028181;28;20440;-74
2022/01/22 06:06:49;;;;;;;21.17;10.40;;;5.10;99.90;;;;;;5025133;28;20186;-74
2022/01/22 06:09:15;;;;;;;23.80;12.33;;;4.80;99.90;;;;;;5015585;28;20244;-73
2022/01/22 06:12:03;;;;;;;24.47;11.30;;;4.80;99.90;;;;;;5027175;28;20285;-73
2022/01/22 06:14:29;;;;;;;15.90;10.00;;;4.90;99.90;;;;;;5028042;28;20303;-74
2022/01/22 06:16:54;;;;;;;22.93;9.90;;;4.80;99.90;;;;;;5034515;28;20404;-73
2022/01/22 06:19:20;;;;;;;16.80;10.27;;;4.70;99.90;;;;;;5029306;28;20617;-74
2022/01/22 06:21:45;;;;;;;16.30;10.47;;;4.70;99.90;;;;;;5027599;28;20357;-73
2022/01/22 06:24:12;;;;;;;17.00;10.30;;;4.80;99.90;;;;;;5028116;28;20210;-73
2022/01/22 06:26:38;;;;;;;19.00;9.40;;;4.80;99.90;;;;;;5025536;28;20273;-73
2022/01/22 06:29:04;;;;;;;20.73;9.47;;;4.80;99.90;;;;;;5027972;28;20895;-75
2022/01/22 06:31:30;;;;;;;18.43;9.70;;;4.90;99.90;;;;;;5027984;28;20515;-73
2022/01/22 06:33:58;;;;;;;18.20;11.07;;;4.90;99.90;;;;;;5028159;28;20405;-74
2022/01/22 06:36:23;;;;;;;17.97;9.80;;;4.90;99.90;;;;;;5025944;28;20590;-73
2022/01/22 06:38:55;;;;;;;19.20;9.80;;;4.90;99.90;;;;;;5028379;28;20483;-73
2022/01/22 06:44:05;;;;;;;16.50;9.77;;;4.90;99.90;;;;;;5027627;28;20436;-75
2022/01/22 06:46:31;;;;;;;16.27;9.27;;;4.90;99.90;;;;;;5030295;28;20423;-73
2022/01/22 06:48:56;;;;;;;21.00;10.10;;;4.90;99.90;;;;;;5035458;28;20822;-73
2022/01/22 06:51:22;;;;;;;17.00;9.50;;;4.80;99.90;;;;;;5027487;28;20679;-73
2022/01/22 06:53:49;;;;;;;19.10;10.90;;;4.90;99.90;;;;;;5026570;28;20701;-74
2022/01/22 06:56:20;;;;;;;23.97;11.10;;;4.80;99.90;;;;;;5023719;28;20423;-74
2022/01/22 06:58:45;;;;;;;17.73;10.33;;;4.90;99.90;;;;;;5025796;28;20416;-73
2022/01/22 07:01:11;;;;;;;18.23;9.20;;;4.70;99.90;;;;;;5027246;28;20922;-73
2022/01/22 07:03:36;;;;;;;20.50;10.50;;;4.70;99.90;;;;;;5027146;28;20197;-74
2022/01/22 07:06:02;;;;;;;24.03;10.60;;;4.70;99.90;;;;;;5024818;28;20181;-73
2022/01/22 07:08:28;;;;;;;20.87;9.77;;;4.70;99.90;;;;;;5022628;28;20202;-74
2022/01/22 07:10:54;;;;;;;17.40;10.90;;;4.70;99.90;;;;;;5025914;28;21037;-74
2022/01/22 07:13:19;;;;;;;23.73;10.43;;;4.90;99.90;;;;;;5027190;28;20174;-73
2022/01/22 07:15:45;;;;;;;16.53;10.07;;;4.80;99.90;;;;;;5026271;28;20603;-74
2022/01/22 07:18:13;;;;;;;16.70;9.10;;;5.40;99.90;;;;;;5028338;28;20242;-73
2022/01/22 07:20:41;;;;;;;19.80;9.30;;;4.70;99.90;;;;;;5036564;28;20745;-73
2022/01/22 07:25:51;;;;;;;16.93;10.17;;;5.10;99.90;;;;;;5034423;28;20431;-73
2022/01/22 07:28:17;;;;;;;18.07;10.10;;;4.70;99.90;;;;;;5028502;28;20448;-74
2022/01/22 07:30:46;;;;;;;20.63;10.77;;;4.60;99.90;;;;;;5031011;28;20560;-74
2022/01/22 07:33:12;;;;;;;20.50;10.60;;;4.90;99.90;;;;;;5030843;28;20558;-74
2022/01/22 07:35:38;;;;;;;20.90;11.30;;;4.60;99.90;;;;;;5029523;28;20424;-74
2022/01/22 07:38:04;;;;;;;21.23;10.43;;;4.60;99.90;;;;;;5030981;28;20420;-74
2022/01/22 07:40:29;;;;;;;20.40;11.23;;;4.60;99.90;;;;;;5029996;28;20208;-74
2022/01/22 07:42:56;;;;;;;18.80;10.50;;;4.60;99.90;;;;;;5030173;28;20280;-74
2022/01/22 07:45:22;;;;;;;21.10;11.30;;;4.60;99.90;;;;;;5029277;28;20265;-73
2022/01/22 07:47:47;;;;;;;17.60;10.93;;;4.60;99.90;;;;;;5034249;28;20965;-75
2022/01/22 07:50:13;;;;;;;22.43;11.20;;;4.60;99.90;;;;;;5034053;28;20643;-74
2022/01/22 07:52:38;;;;;;;20.67;11.90;;;5.00;99.90;;;;;;5030282;28;20736;-72
2022/01/22 07:55:06;;;;;;;27.13;11.50;;;4.70;99.90;;;;;;5030121;28;20173;-74
2022/01/22 07:57:32;;;;;;;22.17;10.83;;;4.70;99.90;;;;;;5021515;28;20256;-74
2022/01/22 07:59:57;;;;;;;20.83;11.10;;;4.70;99.90;;;;;;5029772;28;20527;-73
2022/01/22 08:02:23;;;;;;;22.37;11.40;;;4.70;99.90;;;;;;5030204;28;20186;-74
2022/01/22 08:04:48;;;;;;;19.30;11.50;;;5.00;99.90;;;;;;5029909;28;20170;-75
2022/01/22 08:07:14;;;;;;;29.50;11.63;;;4.70;99.90;;;;;;5029716;28;20217;-75
2022/01/22 08:09:40;;;;;;;23.13;11.80;;;4.80;99.90;;;;;;5025396;28;20746;-73
2022/01/22 08:12:07;;;;;;;19.60;11.40;;;4.80;99.90;;;;;;5026067;28;20238;-74
2022/01/22 08:14:32;;;;;;;22.23;10.83;;;4.80;99.90;;;;;;5028843;28;20411;-72
2022/01/22 08:16:58;;;;;;;23.13;11.70;;;4.90;99.90;;;;;;5025005;28;20420;-73
2022/01/22 08:19:24;;;;;;;32.27;14.97;;;4.80;99.90;;;;;;5041350;28;20189;-75
2022/01/22 08:21:49;;;;;;;21.33;11.77;;;4.80;99.90;;;;;;5039104;28;20280;-74
2022/01/22 08:24:16;;;;;;;21.17;12.77;;;4.80;99.90;;;;;;5028725;28;20184;-73
2022/01/22 08:26:50;;;;;;;22.77;11.23;;;4.80;99.90;;;;;;5028737;28;20189;-71
2022/01/22 08:29:15;;;;;;;21.97;11.13;;;4.80;99.90;;;;;;5010050;28;20453;-74
2022/01/22 08:32:09;;;;;;;24.03;12.97;;;4.80;99.90;;;;;;5026898;28;20471;-74
2022/01/22 08:37:20;;;;;;;23.93;10.63;;;4.80;99.90;;;;;;5029697;28;20427;-73
2022/01/22 08:39:45;;;;;;;27.33;13.00;;;4.90;99.90;;;;;;5028716;28;20503;-72
2022/01/22 08:42:11;;;;;;;30.33;12.83;;;5.20;99.90;;;;;;5029128;28;20432;-74
2022/01/22 08:44:39;;;;;;;22.73;11.43;;;4.90;99.90;;;;;;5022269;28;20188;-74
2022/01/22 08:47:05;;;;;;;15.73;9.73;;;4.90;99.90;;;;;;5029876;28;20631;-74
2022/01/22 08:49:31;;;;;;;23.70;11.73;;;4.90;99.90;;;;;;5038467;28;20526;-73
2022/01/22 08:51:56;;;;;;;25.37;11.53;;;4.90;99.90;;;;;;5028174;28;20198;-73
2022/01/22 08:54:22;;;;;;;21.40;10.53;;;5.00;99.90;;;;;;5029767;28;20249;-73
2022/01/22 08:56:47;;;;;;;19.80;11.40;;;5.00;99.90;;;;;;5027758;28;20256;-73
2022/01/22 08:59:13;;;;;;;20.13;11.30;;;5.00;99.90;;;;;;5029975;28;20609;-73
2022/01/22 09:01:40;;;;;;;18.43;11.60;;;5.10;99.90;;;;;;5029354;28;20738;-73
2022/01/22 09:04:06;;;;;;;18.93;10.53;;;5.10;99.90;;;;;;5029676;28;20412;-73
2022/01/22 09:06:32;;;;;;;23.17;11.90;;;5.10;99.90;;;;;;5029254;28;20423;-73
2022/01/22 09:09:08;;;;;;;16.43;10.10;;;5.20;99.90;;;;;;5009941;28;20217;-72
2022/01/22 09:11:33;;;;;;;18.20;10.67;;;5.20;99.90;;;;;;5009172;28;20194;-73
2022/01/22 09:13:59;;;;;;;23.23;9.87;;;5.60;99.90;;;;;;5028686;28;20477;-73
2022/01/22 09:16:25;;;;;;;20.47;9.90;;;5.20;99.90;;;;;;5031601;28;20193;-72
2022/01/22 09:18:53;;;;;;;17.70;10.50;;;5.10;99.90;;;;;;5036163;28;20407;-74
2022/01/22 09:21:19;;;;;;;17.50;9.40;;;5.20;99.90;;;;;;5026968;28;20336;-73
2022/01/22 09:23:44;;;;;;;18.90;9.70;;;5.20;99.90;;;;;;5028725;28;20508;-73
2022/01/22 09:26:10;;;;;;;21.23;9.97;;;5.20;99.90;;;;;;5028337;28;20186;-73
2022/01/22 09:28:36;;;;;;;19.40;9.10;;;5.30;99.90;;;;;;5028756;28;20358;-74
2022/01/22 09:31:03;;;;;;;29.87;9.50;;;5.40;99.90;;;;;;5029205;28;20361;-74
2022/01/22 09:33:29;;;;;;;17.03;9.40;;;5.50;99.90;;;;;;5029082;28;20531;-73
2022/01/22 09:35:54;;;;;;;17.67;8.40;;;5.40;99.90;;;;;;5028864;28;20511;-72
2022/01/22 09:38:21;;;;;;;20.60;9.57;;;5.50;99.90;;;;;;5027354;28;20713;-74
2022/01/22 09:40:46;;;;;;;19.60;9.33;;;5.40;99.90;;;;;;5028130;28;20288;-73
2022/01/22 09:43:12;;;;;;;17.87;9.50;;;5.80;99.90;;;;;;5028344;28;20491;-74
2022/01/22 09:45:38;;;;;;;21.63;9.30;;;5.90;99.90;;;;;;5027799;28;20182;-73
2022/01/22 09:48:04;;;;;;;18.03;10.63;;;6.10;99.90;;;;;;5028537;28;20498;-72
2022/01/22 09:50:32;;;;;;;17.87;10.40;;;5.90;99.90;;;;;;5046468;28;20193;-72
2022/01/22 09:52:58;;;;;;;19.50;10.40;;;5.80;99.90;;;;;;5040766;28;20440;-74
2022/01/22 09:55:24;;;;;;;16.33;8.57;;;5.80;99.90;;;;;;5024350;28;20500;-72
2022/01/22 09:57:50;;;;;;;19.07;9.70;;;5.90;99.90;;;;;;5008043;28;20202;-73
2022/01/22 10:00:18;;;;;;;18.60;10.10;;;5.90;99.90;;;;;;5043218;28;20438;-73
2022/01/22 10:02:54;;;;;;;21.03;10.57;;;6.00;99.90;;;;;;5030716;28;20225;-73
2022/01/22 10:05:37;;;;;;;17.97;10.63;;;6.00;99.90;;;;;;5028093;28;20511;-73
2022/01/22 10:08:24;;;;;;;16.53;9.00;;;6.00;99.90;;;;;;5037231;28;20459;-74
2022/01/22 10:10:50;;;;;;;19.47;9.90;;;6.00;99.90;;;;;;5028033;28;20547;-75
2022/01/22 10:13:40;;;;;;;14.10;9.30;;;5.90;99.90;;;;;;5026212;28;20422;-76
2022/01/22 10:16:17;;;;;;;15.93;9.37;;;5.90;99.90;;;;;;5028586;28;20408;-77
2022/01/22 10:18:43;;;;;;;18.77;9.07;;;6.00;99.90;;;;;;5030354;28;20891;-73
2022/01/22 10:21:11;;;;;;;21.00;9.93;;;6.20;99.90;;;;;;5026646;28;20556;-73
2022/01/22 10:23:39;;;;;;;19.20;10.57;;;6.30;99.90;;;;;;5028195;28;20408;-73
2022/01/22 10:26:09;;;;;;;22.13;11.53;;;6.20;99.90;;;;;;5024674;28;20728;-73
2022/01/22 10:28:47;;;;;;;18.43;9.63;;;6.30;99.90;;;;;;5024828;28;20487;-74
2022/01/22 10:31:23;;;;;;;31.03;14.73;;;6.20;99.90;;;;;;5026398;28;20755;-75
2022/01/22 10:34:09;;;;;;;22.43;12.17;;;6.30;99.90;;;;;;5028235;28;20409;-73
2022/01/22 10:36:35;;;;;;;25.77;11.10;;;6.30;99.90;;;;;;5028148;28;20400;-73
2022/01/22 10:39:04;;;;;;;26.43;12.63;;;6.10;99.90;;;;;;5028245;28;20425;-73
2022/01/22 10:41:40;;;;;;;27.20;11.57;;;6.10;99.90;;;;;;5027281;28;20284;-73
2022/01/22 10:44:09;;;;;;;23.93;13.27;;;6.10;99.90;;;;;;5029693;28;20420;-74
2022/01/22 10:46:49;;;;;;;18.83;9.93;;;6.00;99.90;;;;;;5018506;28;20775;-74
2022/01/22 10:49:16;;;;;;;21.70;10.63;;;5.90;99.90;;;;;;5036243;28;21324;-74
2022/01/22 10:51:48;;;;;;;23.57;10.10;;;5.90;99.90;;;;;;5026017;28;20444;-73
2022/01/22 10:54:14;;;;;;;21.30;10.43;;;5.90;99.90;;;;;;5027705;28;20420;-73
2022/01/22 10:56:41;;;;;;;17.77;9.73;;;5.90;99.90;;;;;;5027541;28;20405;-73
2022/01/22 10:59:09;;;;;;;20.53;10.47;;;5.90;99.90;;;;;;5027702;28;20408;-77
2022/01/22 11:01:46;;;;;;;16.80;10.17;;;5.80;99.90;;;;;;5026801;28;20450;-73
2022/01/22 11:04:18;;;;;;;21.07;10.97;;;5.60;99.90;;;;;;5031209;28;20466;-72
2022/01/22 11:06:54;;;;;;;19.33;9.30;;;5.80;99.90;;;;;;5032002;28;20491;-73
2022/01/22 11:09:21;;;;;;;18.47;10.33;;;5.80;99.90;;;;;;5031521;28;20460;-74
2022/01/22 11:11:48;;;;;;;19.97;10.53;;;5.90;99.90;;;;;;5029739;28;20776;-73
2022/01/22 11:14:15;;;;;;;15.17;10.00;;;8.20;99.90;;;;;;5030866;28;20408;-73
2022/01/22 11:16:43;;;;;;;23.10;10.53;;;5.90;99.90;;;;;;5033760;28;20780;-72
2022/01/22 11:19:09;;;;;;;22.90;10.57;;;6.00;99.90;;;;;;5035531;28;20770;-73
2022/01/22 11:21:40;;;;;;;18.30;10.17;;;6.00;99.90;;;;;;5031067;28;20511;-72
2022/01/22 11:24:07;;;;;;;24.20;10.33;;;6.00;99.90;;;;;;5031611;28;20475;-73
2022/01/22 11:26:33;;;;;;;18.27;10.17;;;6.10;99.90;;;;;;5030356;28;20431;-73
2022/01/22 11:29:00;;;;;;;18.70;9.63;;;6.00;99.90;;;;;;5030977;28;20464;-74
2022/01/22 11:31:25;;;;;;;24.13;10.40;;;6.00;99.90;;;;;;5031706;28;20185;-73
2022/01/22 11:33:54;;;;;;;25.20;11.70;;;6.00;99.90;;;;;;5031235;28;20470;-73
2022/01/22 11:36:26;;;;;;;19.47;9.77;;;6.00;99.90;;;;;;5030613;28;20454;-72
2022/01/22 11:39:00;;;;;;;22.20;11.07;;;6.00;99.90;;;;;;5031584;28;20906;-73
2022/01/22 11:41:27;;;;;;;21.73;10.40;;;6.10;99.90;;;;;;5030518;28;20471;-74
2022/01/22 11:44:04;;;;;;;28.10;10.50;;;6.10;99.90;;;;;;5031089;28;20447;-72
2022/01/22 11:46:39;;;;;;;20.37;10.93;;;6.50;99.90;;;;;;5032384;28;20952;-74
2022/01/22 11:49:09;;;;;;;29.47;11.00;;;6.10;99.90;;;;;;5039584;28;20443;-74
2022/01/22 11:51:34;;;;;;;24.60;11.30;;;6.20;99.90;;;;;;5022860;28;20429;-73
2022/01/22 11:54:00;;;;;;;21.87;9.00;;;6.20;99.90;;;;;;5031048;28;20420;-74
2022/01/22 11:56:50;;;;;;;17.40;9.60;;;6.00;99.90;;;;;;5029566;28;20182;-75
2022/01/22 11:59:27;;;;;;;23.07;9.50;;;6.20;99.90;;;;;;5029424;28;20536;-74
2022/01/22 12:02:03;;;;;;;21.30;10.10;;;6.20;99.90;;;;;;5031127;28;20438;-74
2022/01/22 12:04:38;;;;;;;23.17;10.20;;;6.30;99.90;;;;;;5033304;28;20418;-74
2022/01/22 12:07:03;;;;;;;17.03;9.93;;;6.30;99.90;;;;;;5042413;28;20416;-73
2022/01/22 12:09:34;;;;;;;19.77;10.30;;;6.30;99.90;;;;;;5029081;28;20771;-73
2022/01/22 12:15:11;;;;;;;16.70;9.17;;;6.30;99.90;;;;;;5025692;28;20451;-73
2022/01/22 12:18:17;;;;;;;19.50;9.03;;;6.30;99.90;;;;;;5035854;28;20837;-74
2022/01/22 12:23:37;;;;;;;19.40;8.33;;;6.50;99.90;;;;;;5050395;28;20498;-73
2022/01/22 12:26:03;;;;;;;14.10;9.00;;;6.40;99.90;;;;;;5024681;28;20452;-74
2022/01/22 12:28:44;;;;;;;13.00;7.63;;;6.50;99.90;;;;;;5028492;28;20553;-76
2022/01/22 12:31:15;;;;;;;14.77;7.53;;;6.90;99.90;;;;;;5030277;28;20794;-73
2022/01/22 12:33:41;;;;;;;13.17;7.90;;;7.50;99.90;;;;;;5028802;28;20891;-74
2022/01/22 12:36:13;;;;;;;17.07;7.40;;;7.50;99.90;;;;;;5029616;28;20474;-76
2022/01/22 12:38:48;;;;;;;15.10;8.20;;;7.40;99.90;;;;;;5028684;28;20678;-76
2022/01/22 12:44:05;;;;;;;14.73;7.10;;;7.20;99.90;;;;;;5029292;28;20408;-77
2022/01/22 12:46:31;;;;;;;17.00;8.23;;;7.20;99.90;;;;;;5032914;28;20454;-76
2022/01/22 12:48:57;;;;;;;15.17;7.20;;;7.20;99.90;;;;;;5041621;28;20585;-76
2022/01/22 12:51:26;;;;;;;16.73;8.80;;;7.20;99.90;;;;;;5048430;28;20911;-76
2022/01/22 12:53:52;;;;;;;9.53;7.00;;;7.20;99.90;;;;;;5049973;28;20248;-79
2022/01/22 12:59:05;;;;;;;12.33;8.43;;;7.20;99.90;;;;;;5028433;28;20424;-78
2022/01/22 13:01:32;;;;;;;18.60;8.10;;;7.20;99.90;;;;;;5027609;28;20759;-76
2022/01/22 13:04:01;;;;;;;16.03;8.77;;;7.20;99.90;;;;;;5027510;28;20413;-76
2022/01/22 13:06:38;;;;;;;20.30;8.60;;;7.20;99.90;;;;;;5027664;28;21016;-76
2022/01/22 13:09:04;;;;;;;15.17;9.17;;;7.10;99.90;;;;;;5027452;28;20658;-75
2022/01/22 13:11:32;;;;;;;11.90;8.40;;;7.10;99.90;;;;;;5028571;28;20539;-76
2022/01/22 13:13:58;;;;;;;16.13;8.73;;;7.10;99.90;;;;;;5028752;28;20532;-75
2022/01/22 13:16:24;;;;;;;15.40;8.73;;;7.10;99.90;;;;;;5031275;28;20436;-76
2022/01/22 13:18:56;;;;;;;18.47;8.80;;;7.10;99.90;;;;;;5041166;28;20403;-77
2022/01/22 13:21:23;;;;;;;15.27;8.30;;;4.50;99.90;;;;;;5049402;28;20261;-76
2022/01/22 13:24:10;;;;;;;13.63;7.47;;;7.10;99.90;;;;;;5047773;28;20420;-73
2022/01/22 13:26:53;;;;;;;13.07;7.73;;;7.10;99.90;;;;;;5031226;28;20428;-75
2022/01/22 13:29:26;;;;;;;14.83;8.47;;;7.20;99.90;;;;;;5009584;28;20461;-73
2022/01/22 13:32:04;;;;;;;17.27;7.40;;;7.10;99.90;;;;;;5018455;28;20435;-72
2022/01/22 13:34:39;;;;;;;14.53;8.33;;;7.20;99.90;;;;;;5029174;28;20453;-72
2022/01/22 13:37:58;;;;;;;16.10;8.30;;;7.20;99.90;;;;;;5029079;28;20419;-72
2022/01/22 13:45:22;;;;;;;18.03;7.90;;;7.30;99.90;;;;;;5028475;28;20941;-74
2022/01/22 13:47:55;;;;;;;14.10;7.87;;;7.50;99.90;;;;;;5032867;28;20513;-72
2022/01/22 13:50:21;;;;;;;13.90;8.20;;;7.40;99.90;;;;;;5030128;28;20447;-71
2022/01/22 13:52:47;;;;;;;15.80;8.20;;;7.50;99.90;;;;;;5028187;28;20439;-71
2022/01/22 13:55:14;;;;;;;12.43;7.07;;;7.40;99.90;;;;;;5028761;28;20917;-72
2022/01/22 13:57:40;;;;;;;12.03;7.37;;;7.40;99.90;;;;;;5027749;28;20727;-72
2022/01/22 14:00:12;;;;;;;18.27;8.07;;;7.30;99.90;;;;;;5030868;28;20820;-73
2022/01/22 14:03:06;;;;;;;17.80;8.53;;;7.30;99.90;;;;;;5028220;28;20527;-72
2022/01/22 14:05:32;;;;;;;16.87;8.90;;;7.30;99.90;;;;;;5026430;28;20420;-73
2022/01/22 14:08:07;;;;;;;20.80;9.87;;;7.20;99.90;;;;;;5028135;28;20401;-73
2022/01/22 14:10:34;;;;;;;26.50;12.90;;;7.20;99.90;;;;;;5027942;28;20431;-72
2022/01/22 14:13:09;;;;;;;27.00;14.90;;;7.10;99.90;;;;;;5027932;28;20519;-72
2022/01/22 14:15:43;;;;;;;27.90;13.60;;;7.10;99.90;;;;;;5027615;28;20428;-72
2022/01/22 14:18:22;;;;;;;20.43;10.60;;;7.10;99.90;;;;;;5027739;28;20506;-72
2022/01/22 14:20:52;;;;;;;20.37;12.17;;;7.10;99.90;;;;;;5025095;28;20475;-72
2022/01/22 14:23:23;;;;;;;23.30;11.83;;;7.10;99.90;;;;;;5027457;28;20417;-73
2022/01/22 14:26:04;;;;;;;12.97;8.10;;;7.20;99.90;;;;;;5027307;28;20392;-73
2022/01/22 14:28:49;;;;;;;27.87;9.00;;;7.10;99.90;;;;;;5027800;28;20543;-73
2022/01/22 14:31:43;;;;;;;20.03;9.53;;;7.00;99.90;;;;;;5027953;28;20566;-73
2022/01/22 14:34:12;;;;;;;15.27;9.00;;;7.00;99.90;;;;;;5027566;28;20425;-73
2022/01/22 14:36:43;;;;;;;16.00;9.50;;;7.00;99.90;;;;;;5028996;28;20416;-72
2022/01/22 14:44:54;;;;;;;13.70;8.60;;;7.10;99.90;;;;;;5027596;28;20419;-72